createdAt,value
2018-07-06T00:01:45.171Z,52.50
2018-07-06T00:04:25.028Z,52.80
2018-07-06T00:07:09.393Z,52.70
2018-07-06T00:09:55.634Z,52.80
2018-07-06T00:18:13.906Z,52.90
2018-07-06T00:20:55.432Z,52.80
2018-07-06T00:23:35.971Z,52.80
2018-07-06T00:26:18.755Z,53.00
2018-07-06T00:31:45.107Z,53.00
2018-07-06T00:34:28.707Z,53.00
2018-07-06T00:40:05.178Z,52.90
2018-07-06T00:51:06.445Z,52.70
2018-07-06T00:56:41.035Z,53.10
2018-07-06T01:02:14.048Z,53.10
2018-07-06T01:05:05.303Z,53.00
2018-07-06T01:10:31.771Z,52.40
2018-07-06T01:13:21.003Z,52.40
2018-07-06T01:16:05.327Z,52.60
2018-07-06T01:18:45.493Z,52.60
2018-07-06T01:21:26.411Z,52.30
2018-07-06T01:24:06.090Z,52.10
2018-07-06T01:26:45.803Z,52.00
2018-07-06T01:29:25.655Z,51.50
2018-07-06T01:32:06.222Z,51.30
2018-07-06T01:34:47.123Z,51.10
2018-07-06T01:37:27.574Z,50.80
2018-07-06T01:40:07.814Z,50.60
2018-07-06T01:43:17.928Z,50.50
2018-07-06T01:45:58.126Z,50.30
2018-07-06T01:48:38.076Z,50.30
2018-07-06T01:51:18.242Z,50.30
2018-07-06T01:54:20.218Z,50.30
2018-07-06T01:57:00.304Z,50.40
2018-07-06T01:59:42.247Z,50.30
2018-07-06T02:02:21.712Z,50.10
2018-07-06T02:05:01.244Z,50.00
2018-07-06T02:07:41.172Z,50.20
2018-07-06T02:10:22.284Z,50.10
2018-07-06T02:13:32.206Z,50.00
2018-07-06T02:16:12.901Z,49.80
2018-07-06T02:18:53.736Z,50.00
2018-07-06T02:21:33.708Z,49.90
2018-07-06T02:24:14.246Z,50.00
2018-07-06T02:26:54.122Z,50.00
2018-07-06T02:29:35.919Z,50.00
2018-07-06T02:32:24.551Z,50.10
2018-07-06T02:35:04.470Z,50.30
2018-07-06T02:37:44.196Z,50.30
2018-07-06T02:40:24.494Z,50.40
2018-07-06T02:43:06.771Z,50.70
2018-07-06T02:45:46.688Z,51.00
2018-07-06T02:48:26.387Z,51.20
2018-07-06T02:51:06.454Z,51.20
2018-07-06T02:53:46.327Z,51.00
2018-07-06T02:56:26.378Z,51.10
2018-07-06T02:59:06.040Z,51.20
2018-07-06T03:01:45.623Z,51.20
2018-07-06T03:07:00.131Z,51.40
2018-07-06T03:09:39.715Z,51.40
2018-07-06T03:12:19.967Z,51.60
2018-07-06T03:14:59.895Z,51.60
2018-07-06T03:22:48.297Z,52.20
2018-07-06T03:25:27.881Z,52.00
2018-07-06T03:28:07.631Z,51.80
2018-07-06T03:30:47.710Z,51.60
2018-07-06T03:33:32.671Z,51.50
2018-07-06T03:36:12.594Z,51.50
2018-07-06T03:38:52.787Z,51.70
2018-07-06T03:41:32.603Z,51.90
2018-07-06T03:44:12.644Z,52.10
2018-07-06T03:46:52.446Z,52.20
2018-07-06T03:49:31.901Z,52.30
2018-07-06T03:52:12.008Z,52.40
2018-07-06T03:54:55.175Z,52.40
2018-07-06T03:57:37.835Z,52.40
2018-07-06T04:02:51.915Z,52.40
2018-07-06T04:05:31.693Z,52.50
2018-07-06T04:08:11.575Z,52.60
2018-07-06T04:10:51.546Z,52.60
2018-07-06T04:13:51.891Z,52.50
2018-07-06T04:16:31.710Z,52.40
2018-07-06T04:19:13.091Z,52.50
2018-07-06T04:21:57.946Z,52.50
2018-07-06T04:24:37.799Z,52.60
2018-07-06T04:27:18.775Z,52.60
2018-07-06T04:30:03.122Z,52.50
2018-07-06T04:32:53.187Z,52.60
2018-07-06T04:35:33.161Z,52.70
2018-07-06T04:38:12.919Z,52.60
2018-07-06T04:40:52.791Z,52.50
2018-07-06T04:43:41.855Z,52.30
2018-07-06T04:46:22.383Z,52.20
2018-07-06T04:49:03.164Z,52.10
2018-07-06T04:51:43.708Z,52.20
2018-07-06T04:54:23.673Z,52.00
2018-07-06T04:57:03.876Z,52.00
2018-07-06T04:59:46.565Z,52.00
2018-07-06T05:02:27.398Z,51.90
2018-07-06T05:05:12.395Z,52.00
2018-07-06T05:07:55.591Z,51.80
2018-07-06T05:10:37.570Z,51.70
2018-07-06T05:13:26.168Z,51.40
2018-07-06T05:16:13.870Z,51.20
2018-07-06T05:24:32.576Z,50.50
2018-07-06T05:27:13.955Z,50.40
2018-07-06T05:29:56.611Z,50.20
2018-07-06T05:32:40.664Z,50.00
2018-07-06T05:35:21.293Z,49.70
2018-07-06T05:43:45.586Z,49.60
2018-07-06T05:46:31.170Z,49.10
2018-07-06T05:49:14.351Z,49.00
2018-07-06T05:51:54.796Z,48.80
2018-07-06T06:00:13.291Z,48.30
2018-07-06T06:03:02.697Z,48.30
2018-07-06T06:05:43.515Z,48.60
2018-07-06T06:10:57.815Z,48.70
2018-07-06T06:13:41.248Z,48.70
2018-07-06T06:16:21.527Z,48.90
2018-07-06T06:18:55.957Z,49.20
2018-07-06T06:21:41.036Z,49.30
2018-07-06T06:24:12.368Z,49.40
2018-07-06T06:26:43.552Z,49.60
2018-07-06T06:29:15.390Z,49.60
2018-07-06T06:32:18.484Z,49.80
2018-07-06T06:43:24.890Z,49.40
2018-07-06T06:45:56.656Z,49.60
2018-07-06T06:48:34.250Z,49.70
2018-07-06T06:51:10.354Z,49.60
2018-07-06T06:53:44.809Z,49.70
2018-07-06T06:56:44.292Z,49.70
2018-07-06T06:59:19.589Z,49.70
2018-07-06T07:01:54.788Z,49.60
2018-07-06T07:04:33.843Z,49.50
2018-07-06T07:07:08.726Z,49.90
2018-07-06T07:18:23.870Z,50.50
2018-07-06T07:26:38.572Z,50.70
2018-07-06T07:38:44.070Z,51.30
2018-07-06T07:46:59.075Z,51.70
2018-07-06T07:52:22.993Z,51.70
2018-07-06T07:55:09.724Z,51.60
2018-07-06T08:12:54.677Z,51.40
2018-07-06T08:24:22.446Z,50.90
2018-07-06T08:33:09.099Z,50.90
2018-07-06T08:35:56.247Z,50.60
2018-07-06T08:38:36.699Z,50.70
2018-07-06T08:46:44.709Z,50.20
2018-07-06T08:51:48.295Z,49.80
2018-07-06T08:54:18.127Z,49.70
2018-07-06T08:56:51.050Z,49.50
2018-07-06T08:59:21.982Z,49.40
2018-07-06T09:01:59.648Z,49.10
2018-07-06T09:04:46.266Z,48.90
2018-07-06T09:07:18.450Z,48.60
2018-07-06T09:09:50.829Z,48.40
2018-07-06T09:12:22.795Z,48.30
2018-07-06T09:14:58.309Z,48.30
2018-07-06T09:17:30.059Z,48.30
2018-07-06T09:20:07.114Z,48.30
2018-07-06T09:22:37.194Z,48.50
2018-07-06T09:25:10.201Z,48.40
2018-07-06T09:27:46.360Z,48.30
2018-07-06T09:30:19.946Z,48.10
2018-07-06T09:35:20.068Z,47.60
2018-07-06T09:37:59.667Z,47.70
2018-07-06T09:40:30.799Z,47.60
2018-07-06T09:43:02.469Z,47.60
2018-07-06T09:48:11.368Z,47.20
2018-07-06T09:50:46.452Z,47.10
2018-07-06T09:53:35.930Z,47.20
2018-07-06T10:01:23.001Z,46.70
2018-07-06T10:07:06.584Z,46.80
2018-07-06T10:09:42.598Z,46.60
2018-07-06T10:12:47.565Z,46.30
2018-07-06T10:15:23.940Z,46.20
2018-07-06T10:18:00.342Z,46.10
2018-07-06T10:20:35.404Z,46.00
2018-07-06T10:23:30.539Z,45.90
2018-07-06T10:26:09.987Z,45.90
2018-07-06T10:30:55.802Z,45.30
2018-07-06T10:36:20.781Z,45.20
2018-07-06T10:42:04.380Z,45.40
2018-07-06T10:44:48.020Z,45.60
2018-07-06T10:50:12.947Z,45.50
2018-07-06T10:55:35.094Z,45.80
2018-07-06T10:58:13.510Z,45.80
2018-07-06T11:00:46.035Z,45.80
2018-07-06T11:03:18.637Z,45.40
2018-07-06T11:05:49.579Z,45.70
2018-07-06T11:08:20.319Z,46.10
2018-07-06T11:10:50.071Z,46.00
2018-07-06T11:13:26.265Z,46.00
2018-07-06T11:18:30.658Z,46.10
2018-07-06T11:21:01.543Z,46.40
2018-07-06T11:23:41.719Z,46.50
2018-07-06T11:28:54.454Z,46.60
2018-07-06T11:31:30.479Z,46.40
2018-07-06T11:36:52.152Z,46.70
2018-07-06T11:39:21.778Z,46.30
2018-07-06T11:41:50.462Z,46.40
2018-07-06T11:44:20.451Z,46.50
2018-07-06T11:46:50.900Z,46.70
2018-07-06T11:49:19.649Z,46.80
2018-07-06T11:51:48.943Z,46.80
2018-07-06T11:54:21.247Z,46.90
2018-07-06T11:56:51.030Z,46.70
2018-07-06T11:59:19.952Z,46.60
2018-07-06T12:01:48.889Z,46.70
2018-07-06T12:04:22.473Z,47.10
2018-07-06T12:06:53.004Z,46.80
2018-07-06T12:09:22.874Z,46.80
2018-07-06T12:11:52.382Z,47.00
2018-07-06T12:16:53.787Z,47.30
2018-07-06T12:19:23.998Z,47.00
2018-07-06T12:21:53.868Z,46.90
2018-07-06T12:24:22.722Z,47.00
2018-07-06T12:26:52.303Z,46.90
2018-07-06T12:29:21.718Z,46.90
2018-07-06T12:31:53.855Z,47.00
2018-07-06T12:34:23.444Z,47.10
2018-07-06T12:36:52.522Z,46.80
2018-07-06T12:39:21.379Z,46.60
2018-07-06T12:41:49.975Z,46.40
2018-07-06T12:44:19.946Z,46.50
2018-07-06T12:46:51.753Z,47.00
2018-07-06T12:49:23.323Z,46.30
2018-07-06T12:51:54.796Z,46.40
2018-07-06T12:54:41.151Z,46.30
2018-07-06T12:57:11.479Z,46.40
2018-07-06T12:59:45.066Z,46.50
2018-07-06T13:02:19.122Z,46.60
2018-07-06T13:04:49.280Z,46.60
2018-07-06T13:07:22.095Z,46.60
2018-07-06T13:09:51.312Z,46.40
2018-07-06T13:12:28.709Z,46.60
2018-07-06T13:15:08.177Z,46.80
2018-07-06T13:17:38.774Z,47.00
2018-07-06T13:20:08.706Z,46.70
2018-07-06T13:22:53.651Z,46.60
2018-07-06T13:27:54.721Z,46.80
2018-07-06T13:30:27.632Z,46.60
2018-07-06T13:33:01.271Z,46.60
2018-07-06T13:35:36.393Z,46.30
2018-07-06T13:40:59.960Z,46.40
2018-07-06T13:49:08.405Z,46.20
2018-07-06T13:51:37.732Z,46.40
2018-07-06T13:54:06.456Z,46.60
2018-07-06T13:56:35.942Z,46.80
2018-07-06T13:59:04.435Z,46.80
2018-07-06T14:01:32.945Z,46.20
2018-07-06T14:06:30.508Z,45.80
2018-07-06T14:08:59.932Z,45.60
2018-07-06T14:11:28.761Z,45.70
2018-07-06T14:14:02.856Z,46.00
2018-07-06T14:16:31.451Z,46.10
2018-07-06T14:18:59.977Z,46.20
2018-07-06T14:21:28.345Z,46.20
2018-07-06T14:23:56.843Z,46.40
2018-07-06T14:26:26.066Z,46.20
2018-07-06T14:28:54.634Z,46.40
2018-07-06T14:31:23.220Z,46.60
2018-07-06T14:33:51.850Z,46.50
2018-07-06T14:36:20.427Z,46.10
2018-07-06T14:38:49.714Z,45.70
2018-07-06T14:41:18.219Z,45.80
2018-07-06T14:43:51.936Z,45.80
2018-07-06T14:46:20.628Z,45.90
2018-07-06T14:48:49.369Z,46.30
2018-07-06T15:16:41.600Z,29.50
2018-07-06T15:19:19.419Z,27.20
2018-07-06T15:21:53.955Z,27.10
2018-07-06T15:27:03.737Z,26.90
2018-07-06T15:29:40.271Z,26.60
2018-07-06T15:58:37.226Z,24.80
2018-07-06T16:01:19.342Z,24.60
2018-07-06T16:20:59.859Z,23.80
2018-07-06T16:23:41.254Z,23.60
2018-07-06T16:28:56.465Z,24.00
2018-07-06T16:42:42.972Z,24.20
2018-07-06T16:48:02.735Z,25.10
2018-07-06T16:50:37.520Z,26.00
2018-07-06T16:53:21.134Z,26.90
2018-07-06T16:58:55.750Z,27.90
2018-07-06T17:09:50.632Z,29.60
2018-07-06T17:15:06.884Z,29.40
2018-07-06T17:23:33.848Z,29.90
2018-07-06T17:26:06.931Z,29.90
2018-07-06T17:28:46.836Z,30.00
2018-07-06T17:31:27.042Z,30.10
2018-07-06T17:39:31.255Z,30.30
2018-07-06T17:53:17.205Z,31.20
2018-07-06T17:55:52.934Z,31.50
2018-07-06T17:58:32.014Z,32.30
2018-07-06T18:01:11.883Z,33.50
2018-07-06T18:12:10.376Z,35.10
2018-07-06T18:14:46.327Z,34.10
2018-07-06T18:20:07.141Z,34.40
2018-07-06T18:22:44.959Z,35.20
2018-07-06T18:28:01.841Z,34.80
2018-07-06T18:30:36.017Z,35.60
2018-07-06T18:33:04.869Z,36.20
2018-07-06T18:35:41.099Z,36.90
2018-07-06T18:38:18.008Z,37.20
2018-07-06T18:40:53.291Z,37.00
2018-07-06T18:43:35.493Z,36.40
2018-07-06T18:59:53.630Z,37.10
2018-07-06T19:05:29.572Z,37.60
2018-07-06T19:10:58.175Z,37.90
2018-07-06T19:19:04.123Z,38.40
2018-07-06T19:21:41.317Z,38.70
2018-07-06T20:03:25.315Z,41.10
2018-07-06T20:08:49.122Z,41.10
2018-07-06T20:11:27.535Z,41.90
2018-07-06T20:17:16.893Z,41.50
2018-07-06T20:19:58.479Z,41.20
2018-07-06T20:25:38.667Z,41.80
2018-07-06T20:57:20.243Z,43.70
2018-07-06T21:02:50.815Z,43.70
2018-07-06T21:05:32.088Z,43.90
2018-07-06T21:08:08.097Z,44.90
2018-07-06T21:13:18.294Z,45.70
2018-07-06T21:15:56.062Z,46.10
2018-07-06T21:21:12.707Z,46.00
2018-07-06T21:23:51.731Z,46.00
2018-07-06T21:26:25.176Z,46.10
2018-07-06T21:29:02.685Z,46.60
2018-07-06T21:31:33.651Z,45.80
2018-07-06T21:34:05.908Z,46.00
2018-07-06T21:39:40.031Z,46.10
2018-07-06T21:42:15.774Z,46.30
2018-07-06T21:44:46.830Z,46.10
2018-07-06T21:47:20.935Z,46.10
2018-07-06T21:49:58.499Z,45.90
2018-07-06T21:57:38.976Z,46.50
2018-07-06T22:00:19.686Z,46.90
2018-07-06T22:03:00.288Z,46.90
2018-07-06T22:05:40.149Z,47.10
2018-07-06T22:08:10.275Z,47.30
2018-07-06T22:10:44.743Z,47.90
2018-07-06T22:13:30.818Z,48.10
2018-07-06T22:16:01.484Z,48.20
2018-07-06T22:18:31.665Z,48.20
2018-07-06T22:21:11.908Z,48.20
2018-07-06T22:27:04.113Z,48.70
2018-07-06T22:29:34.937Z,49.00
2018-07-06T22:32:17.016Z,49.00
2018-07-06T22:34:50.136Z,48.70
2018-07-06T22:37:19.583Z,48.60
2018-07-06T22:39:51.029Z,48.90
2018-07-06T22:47:35.422Z,49.90
2018-07-06T22:50:05.352Z,50.30
2018-07-06T22:52:34.256Z,50.70
2018-07-06T22:55:04.138Z,50.90
2018-07-06T22:57:33.568Z,51.20
2018-07-06T23:07:02.868Z,51.50
2018-07-06T23:09:31.611Z,51.90
2018-07-06T23:12:00.968Z,52.20
2018-07-06T23:14:31.505Z,52.30
2018-07-06T23:17:02.227Z,52.30
2018-07-06T23:19:31.465Z,52.30
2018-07-06T23:24:28.877Z,52.70
2018-07-06T23:26:59.667Z,52.80
2018-07-06T23:29:28.446Z,52.90
2018-07-06T23:31:57.733Z,52.80
2018-07-06T23:36:57.243Z,52.90
2018-07-06T23:39:26.509Z,52.90
2018-07-06T23:41:55.558Z,53.20
2018-07-06T23:44:25.623Z,53.30
2018-07-06T23:46:54.636Z,53.40
2018-07-06T23:49:23.825Z,53.20
2018-07-06T23:51:52.712Z,53.20
2018-07-06T23:54:21.642Z,53.10
2018-07-06T23:56:51.218Z,53.00
2018-07-06T23:59:21.867Z,53.10
